createdAt,value
2017-06-10T00:00:20.607Z,75.70
2017-06-10T00:02:48.900Z,75.60
2017-06-10T00:05:17.181Z,74.90
2017-06-10T00:07:45.472Z,74.00
2017-06-10T00:10:13.736Z,74.00
2017-06-10T00:12:42.049Z,74.20
2017-06-10T00:15:10.320Z,74.10
2017-06-10T00:17:39.359Z,74.80
2017-06-10T00:20:07.647Z,74.70
2017-06-10T00:22:35.923Z,74.40
2017-06-10T00:25:04.216Z,75.10
2017-06-10T00:27:32.498Z,74.70
2017-06-10T00:30:00.790Z,74.90
2017-06-10T00:32:29.068Z,75.50
2017-06-10T00:34:57.360Z,76.20
2017-06-10T00:37:26.407Z,76.20
2017-06-10T00:39:54.694Z,76.20
2017-06-10T00:42:22.968Z,76.50
2017-06-10T00:44:51.270Z,75.70
2017-06-10T00:47:19.551Z,74.90
2017-06-10T00:49:47.864Z,74.90
2017-06-10T00:52:16.143Z,75.80
2017-06-10T00:54:44.433Z,75.10
2017-06-10T00:57:12.719Z,74.40
2017-06-10T00:59:40.995Z,74.40
2017-06-10T01:02:09.283Z,73.70
2017-06-10T01:04:37.559Z,74.80
2017-06-10T01:07:05.872Z,75.20
2017-06-10T01:09:34.115Z,75.50
2017-06-10T01:12:02.444Z,75.60
2017-06-10T01:14:30.716Z,74.80
2017-06-10T01:16:59.021Z,74.80
2017-06-10T01:19:27.282Z,75.00
2017-06-10T01:21:55.573Z,74.90
2017-06-10T01:24:23.839Z,75.50
2017-06-10T01:26:52.162Z,75.40
2017-06-10T01:29:20.427Z,75.10
2017-06-10T01:31:48.714Z,75.20
2017-06-10T01:34:16.984Z,74.30
2017-06-10T01:36:45.271Z,73.70
2017-06-10T01:39:13.542Z,73.60
2017-06-10T01:41:41.808Z,73.80
2017-06-10T01:44:10.098Z,74.30
2017-06-10T01:46:38.370Z,73.70
2017-06-10T01:49:06.652Z,73.30
2017-06-10T01:51:34.924Z,73.80
2017-06-10T01:54:03.214Z,74.30
2017-06-10T01:56:31.479Z,74.20
2017-06-10T01:58:59.764Z,73.60
2017-06-10T02:01:28.037Z,74.20
2017-06-10T02:03:56.314Z,74.20
2017-06-10T02:06:24.583Z,73.60
2017-06-10T02:08:52.867Z,73.80
2017-06-10T02:11:21.140Z,75.30
2017-06-10T02:13:49.414Z,75.20
2017-06-10T02:16:17.687Z,74.30
2017-06-10T02:18:45.967Z,73.70
2017-06-10T02:21:14.237Z,73.80
2017-06-10T02:23:42.504Z,74.10
2017-06-10T02:26:10.787Z,74.90
2017-06-10T02:28:39.059Z,74.80
2017-06-10T02:31:07.343Z,75.00
2017-06-10T02:33:35.623Z,74.40
2017-06-10T02:36:03.907Z,73.60
2017-06-10T02:38:32.174Z,73.50
2017-06-10T02:41:00.455Z,73.90
2017-06-10T02:43:28.721Z,74.40
2017-06-10T02:45:57.002Z,75.00
2017-06-10T02:48:25.284Z,74.60
2017-06-10T02:50:53.582Z,74.60
2017-06-10T02:53:21.853Z,74.40
2017-06-10T02:55:50.142Z,74.20
2017-06-10T02:58:18.410Z,73.90
2017-06-10T03:00:46.723Z,73.90
2017-06-10T03:03:15.000Z,73.60
2017-06-10T03:05:43.289Z,73.70
2017-06-10T03:08:11.582Z,74.00
2017-06-10T03:10:40.098Z,74.20
2017-06-10T03:13:08.392Z,74.60
2017-06-10T03:15:37.419Z,75.60
2017-06-10T03:18:05.716Z,75.00
2017-06-10T03:20:33.995Z,74.20
2017-06-10T03:23:02.351Z,74.40
2017-06-10T03:25:30.627Z,74.60
2017-06-10T03:27:58.925Z,75.00
2017-06-10T03:30:27.399Z,75.20
2017-06-10T03:32:55.688Z,74.10
2017-06-10T03:35:23.967Z,73.50
2017-06-10T03:37:52.247Z,73.90
2017-06-10T03:40:20.524Z,74.30
2017-06-10T03:42:48.833Z,74.80
2017-06-10T03:45:17.202Z,75.70
2017-06-10T03:47:45.484Z,76.00
2017-06-10T03:50:13.758Z,75.70
2017-06-10T03:52:42.023Z,74.40
2017-06-10T03:55:10.312Z,73.90
2017-06-10T03:57:38.589Z,74.10
2017-06-10T04:00:06.876Z,75.70
2017-06-10T04:02:35.908Z,75.00
2017-06-10T04:05:04.207Z,75.00
2017-06-10T04:07:32.501Z,75.20
2017-06-10T04:10:00.887Z,75.40
2017-06-10T04:12:29.156Z,75.20
2017-06-10T04:14:57.448Z,75.30
2017-06-10T04:17:25.725Z,75.40
2017-06-10T04:19:54.003Z,76.20
2017-06-10T04:22:22.305Z,76.20
2017-06-10T04:24:50.679Z,75.10
2017-06-10T04:27:18.980Z,75.20
2017-06-10T04:29:47.247Z,75.80
2017-06-10T04:32:15.542Z,75.50
2017-06-10T04:34:43.829Z,75.50
2017-06-10T04:37:12.121Z,75.60
2017-06-10T04:39:40.403Z,76.10
2017-06-10T04:42:08.687Z,76.30
2017-06-10T04:44:36.954Z,76.20
2017-06-10T04:47:05.239Z,76.80
2017-06-10T04:49:33.511Z,77.20
2017-06-10T04:52:01.827Z,77.90
2017-06-10T04:54:30.096Z,77.50
2017-06-10T04:56:59.128Z,76.80
2017-06-10T04:59:27.495Z,76.00
2017-06-10T05:01:55.770Z,75.20
2017-06-10T05:04:24.065Z,74.80
2017-06-10T05:06:52.335Z,70.60
2017-06-10T05:09:20.695Z,69.40
2017-06-10T05:11:49.735Z,67.70
2017-06-10T05:14:18.079Z,67.70
2017-06-10T05:16:46.354Z,65.70
2017-06-10T05:19:14.773Z,65.10
2017-06-10T05:21:43.044Z,66.00
2017-06-10T05:24:11.348Z,65.70
2017-06-10T05:26:39.644Z,65.50
2017-06-10T05:29:08.715Z,64.80
2017-06-10T05:31:36.992Z,64.70
2017-06-10T05:34:05.279Z,64.50
2017-06-10T05:36:33.579Z,64.30
2017-06-10T05:39:01.855Z,63.90
2017-06-10T05:41:30.162Z,62.90
2017-06-10T05:43:58.430Z,63.10
2017-06-10T05:46:26.717Z,60.70
2017-06-10T05:48:54.988Z,62.90
2017-06-10T05:51:23.277Z,61.50
2017-06-10T05:53:51.543Z,61.50
2017-06-10T05:56:19.852Z,59.80
2017-06-10T05:58:48.134Z,59.60
2017-06-10T06:01:16.431Z,60.90
2017-06-10T06:03:44.696Z,60.70
2017-06-10T06:06:12.988Z,57.80
2017-06-10T06:08:41.268Z,57.90
2017-06-10T06:11:09.592Z,58.90
2017-06-10T06:13:38.820Z,59.20
2017-06-10T06:16:07.095Z,58.70
2017-06-10T06:18:35.377Z,58.30
2017-06-10T06:21:03.652Z,58.10
2017-06-10T06:23:31.942Z,59.30
2017-06-10T06:26:00.216Z,58.80
2017-06-10T06:28:28.541Z,58.50
2017-06-10T06:30:57.655Z,58.10
2017-06-10T06:33:25.948Z,58.00
2017-06-10T06:35:54.227Z,59.30
2017-06-10T06:38:22.507Z,59.70
2017-06-10T06:40:50.804Z,58.80
2017-06-10T06:43:19.100Z,58.70
2017-06-10T06:45:49.129Z,60.30
2017-06-10T06:48:17.425Z,60.20
2017-06-10T06:50:45.710Z,57.80
2017-06-10T06:53:14.021Z,57.90
2017-06-10T06:55:42.323Z,58.30
2017-06-10T06:58:10.595Z,57.30
2017-06-10T07:00:38.888Z,57.20
2017-06-10T07:03:07.927Z,58.70
2017-06-10T07:05:36.253Z,58.70
2017-06-10T07:08:04.524Z,57.70
2017-06-10T07:10:32.814Z,57.90
2017-06-10T07:13:01.906Z,57.10
2017-06-10T07:15:30.967Z,56.60
2017-06-10T07:17:59.332Z,56.60
2017-06-10T07:20:27.630Z,56.40
2017-06-10T07:22:55.911Z,55.70
2017-06-10T07:25:24.208Z,56.70
2017-06-10T07:27:52.491Z,55.80
2017-06-10T07:30:21.043Z,57.80
2017-06-10T07:32:49.349Z,57.40
2017-06-10T07:35:17.643Z,56.80
2017-06-10T07:37:45.956Z,57.00
2017-06-10T07:40:14.234Z,57.50
2017-06-10T07:42:42.556Z,56.90
2017-06-10T07:45:10.859Z,56.40
2017-06-10T07:47:39.939Z,58.00
2017-06-10T07:50:08.247Z,57.90
2017-06-10T07:52:37.298Z,57.60
2017-06-10T07:55:05.612Z,57.70
2017-06-10T07:57:33.904Z,56.60
2017-06-10T08:00:02.198Z,57.00
2017-06-10T08:02:30.528Z,55.10
2017-06-10T08:04:58.865Z,56.90
2017-06-10T08:07:27.289Z,55.60
2017-06-10T08:09:56.355Z,56.10
2017-06-10T08:12:24.643Z,56.10
2017-06-10T08:14:52.984Z,55.10
2017-06-10T08:17:25.066Z,56.00
2017-06-10T08:19:53.749Z,54.80
2017-06-10T08:22:22.029Z,55.20
2017-06-10T08:24:50.324Z,57.00
2017-06-10T08:27:18.649Z,56.70
2017-06-10T08:29:47.901Z,58.10
2017-06-10T08:32:16.243Z,57.90
2017-06-10T08:34:44.532Z,58.80
2017-06-10T08:37:12.966Z,57.70
2017-06-10T08:39:41.284Z,58.30
2017-06-10T08:42:09.568Z,58.30
2017-06-10T08:44:37.871Z,58.00
2017-06-10T08:47:06.280Z,57.80
2017-06-10T08:49:35.399Z,58.20
2017-06-10T08:52:03.763Z,58.30
2017-06-10T08:54:32.139Z,57.00
2017-06-10T08:57:00.432Z,56.60
2017-06-10T08:59:28.708Z,56.20
2017-06-10T09:01:57.003Z,56.30
2017-06-10T09:04:25.280Z,57.10
2017-06-10T09:06:53.616Z,53.60
2017-06-10T09:09:22.641Z,51.60
2017-06-10T09:11:51.560Z,51.60
2017-06-10T09:14:19.835Z,50.80
2017-06-10T09:16:48.283Z,51.40
2017-06-10T09:19:16.617Z,52.40
2017-06-10T09:21:44.887Z,49.60
2017-06-10T09:24:13.189Z,50.00
2017-06-10T09:26:42.235Z,50.20
2017-06-10T09:29:10.847Z,50.20
2017-06-10T09:31:39.225Z,49.70
2017-06-10T09:34:07.559Z,49.90
2017-06-10T09:36:35.830Z,50.00
2017-06-10T09:39:04.244Z,50.00
2017-06-10T09:41:33.307Z,49.60
2017-06-10T09:44:01.601Z,49.60
2017-06-10T09:46:29.892Z,50.30
2017-06-10T09:48:58.175Z,50.70
2017-06-10T09:51:26.458Z,50.20
2017-06-10T09:53:54.765Z,50.70
2017-06-10T09:56:23.835Z,50.00
2017-06-10T09:58:52.123Z,49.90
2017-06-10T10:01:21.219Z,49.20
2017-06-10T10:03:50.371Z,49.20
2017-06-10T10:06:18.934Z,46.40
2017-06-10T10:08:47.320Z,47.10
2017-06-10T10:11:16.312Z,48.20
2017-06-10T10:13:44.778Z,47.30
2017-06-10T10:16:13.224Z,49.40
2017-06-10T10:18:42.302Z,48.20
2017-06-10T10:21:11.420Z,47.80
2017-06-10T10:23:39.771Z,45.80
2017-06-10T10:26:08.192Z,48.50
2017-06-10T10:28:36.479Z,49.40
2017-06-10T10:31:04.768Z,49.60
2017-06-10T10:33:33.040Z,49.70
2017-06-10T10:36:01.311Z,50.50
2017-06-10T10:38:29.596Z,50.60
2017-06-10T10:40:57.864Z,51.60
2017-06-10T10:43:26.162Z,51.70
2017-06-10T10:45:54.443Z,52.00
2017-06-10T10:48:22.728Z,52.90
2017-06-10T10:50:51.008Z,50.20
2017-06-10T10:53:20.061Z,50.10
2017-06-10T10:55:48.369Z,50.10
2017-06-10T10:58:16.637Z,49.30
2017-06-10T11:00:44.912Z,50.10
2017-06-10T11:03:13.192Z,50.70
2017-06-10T11:05:41.469Z,49.50
2017-06-10T11:08:09.768Z,49.70
2017-06-10T11:10:38.043Z,51.20
2017-06-10T11:13:06.320Z,50.50
2017-06-10T11:15:34.600Z,50.70
2017-06-10T11:18:03.152Z,48.70
2017-06-10T11:20:31.437Z,47.80
2017-06-10T11:22:59.708Z,47.20
2017-06-10T11:25:28.760Z,48.40
2017-06-10T11:27:57.037Z,47.90
2017-06-10T11:30:26.117Z,46.10
2017-06-10T11:32:54.378Z,46.60
2017-06-10T11:35:22.672Z,47.00
2017-06-10T11:37:50.948Z,46.10
2017-06-10T11:40:19.255Z,46.00
2017-06-10T11:42:48.292Z,46.20
2017-06-10T11:45:16.564Z,46.10
2017-06-10T11:47:44.855Z,45.40
2017-06-10T11:50:13.128Z,45.60
2017-06-10T11:52:41.418Z,46.00
2017-06-10T11:55:09.684Z,45.70
2017-06-10T11:57:37.970Z,47.40
2017-06-10T12:00:07.787Z,47.20
2017-06-10T12:02:37.338Z,45.50
2017-06-10T12:05:06.480Z,45.20
2017-06-10T12:07:34.833Z,45.20
2017-06-10T12:10:03.158Z,44.60
2017-06-10T12:12:31.553Z,45.40
2017-06-10T12:14:59.872Z,45.30
2017-06-10T12:17:28.188Z,46.40
2017-06-10T12:19:56.448Z,43.30
2017-06-10T12:22:24.748Z,43.50
2017-06-10T12:24:53.028Z,44.10
2017-06-10T12:27:21.316Z,44.30
2017-06-10T12:29:50.385Z,43.50
2017-06-10T12:32:18.658Z,43.50
2017-06-10T12:34:46.945Z,44.90
2017-06-10T12:37:15.223Z,44.50
2017-06-10T12:39:43.511Z,43.40
2017-06-10T12:42:11.790Z,45.20
2017-06-10T12:44:40.864Z,44.90
2017-06-10T12:47:09.136Z,44.90
2017-06-10T12:49:38.209Z,43.60
2017-06-10T12:52:06.480Z,43.50
2017-06-10T12:54:34.792Z,42.60
2017-06-10T12:57:03.827Z,43.40
2017-06-10T12:59:32.145Z,43.40
2017-06-10T13:02:00.510Z,44.10
2017-06-10T13:04:28.776Z,42.70
2017-06-10T13:06:57.202Z,43.40
2017-06-10T13:09:25.455Z,42.70
2017-06-10T13:11:53.870Z,42.10
2017-06-10T13:14:22.150Z,41.80
2017-06-10T13:16:50.445Z,43.80
2017-06-10T13:19:18.716Z,44.70
2017-06-10T13:21:47.041Z,45.10
2017-06-10T13:24:15.312Z,44.50
2017-06-10T13:26:43.597Z,43.70
2017-06-10T13:29:11.993Z,45.00
2017-06-10T13:31:41.071Z,43.50
2017-06-10T13:34:09.363Z,43.50
2017-06-10T13:36:37.664Z,43.90
2017-06-10T13:39:05.935Z,45.30
2017-06-10T13:41:34.968Z,44.10
2017-06-10T13:44:03.264Z,44.10
2017-06-10T13:46:31.545Z,45.00
2017-06-10T13:48:59.836Z,44.70
2017-06-10T13:51:28.156Z,45.50
2017-06-10T13:53:56.449Z,44.50
2017-06-10T13:56:24.724Z,45.30
2017-06-10T13:58:53.029Z,45.10
2017-06-10T14:01:21.318Z,44.60
2017-06-10T14:03:49.776Z,44.80
2017-06-10T14:06:18.106Z,43.20
2017-06-10T14:08:46.468Z,45.50
2017-06-10T14:11:14.767Z,44.20
2017-06-10T14:13:43.104Z,45.00
2017-06-10T14:16:11.436Z,45.10
2017-06-10T14:18:40.521Z,44.00
2017-06-10T14:21:09.572Z,44.80
2017-06-10T14:23:38.009Z,44.60
2017-06-10T14:26:06.293Z,45.30
2017-06-10T14:28:34.576Z,45.10
2017-06-10T14:31:03.728Z,44.50
2017-06-10T14:33:32.038Z,44.40
2017-06-10T14:36:00.372Z,44.60
2017-06-10T14:38:28.644Z,43.10
2017-06-10T14:40:56.941Z,43.90
2017-06-10T14:43:25.212Z,44.90
2017-06-10T14:45:53.517Z,44.30
2017-06-10T14:48:21.793Z,44.70
2017-06-10T14:50:50.087Z,44.00
2017-06-10T14:53:18.391Z,43.90
2017-06-10T14:55:46.668Z,44.70
2017-06-10T14:58:14.959Z,44.80
2017-06-10T15:00:43.345Z,45.00
2017-06-10T15:03:11.671Z,45.20
2017-06-10T15:05:39.943Z,46.70
2017-06-10T15:08:08.231Z,45.70
2017-06-10T15:10:36.567Z,45.30
2017-06-10T15:13:04.871Z,45.70
2017-06-10T15:15:33.152Z,44.40
2017-06-10T15:18:01.436Z,45.60
2017-06-10T15:20:29.835Z,44.60
2017-06-10T15:22:58.101Z,44.70
2017-06-10T15:25:26.560Z,43.80
2017-06-10T15:27:54.825Z,44.00
2017-06-10T15:30:25.753Z,43.60
2017-06-10T15:32:54.032Z,43.50
2017-06-10T15:35:22.399Z,44.50
2017-06-10T15:37:50.704Z,43.90
2017-06-10T15:40:19.012Z,44.10
2017-06-10T15:42:47.292Z,44.10
2017-06-10T15:45:16.353Z,44.50
2017-06-10T15:47:44.623Z,44.50
2017-06-10T15:50:12.904Z,44.70
2017-06-10T15:52:41.200Z,43.80
2017-06-10T15:55:10.468Z,43.60
2017-06-10T15:57:38.780Z,44.60
2017-06-10T16:00:07.047Z,44.90
2017-06-10T16:02:35.352Z,45.00
2017-06-10T16:05:04.396Z,45.60
2017-06-10T16:07:32.708Z,45.50
2017-06-10T16:10:00.977Z,45.70
2017-06-10T16:12:29.266Z,45.70
2017-06-10T16:14:58.312Z,44.50
2017-06-10T16:17:26.608Z,44.90
2017-06-10T16:19:54.895Z,44.10
2017-06-10T16:22:23.200Z,44.80
2017-06-10T16:24:52.241Z,44.40
2017-06-10T16:27:20.582Z,44.30
2017-06-10T16:29:48.861Z,44.70
2017-06-10T16:32:17.149Z,44.20
2017-06-10T16:34:45.439Z,44.10
2017-06-10T16:37:13.709Z,44.70
2017-06-10T16:39:42.000Z,44.60
2017-06-10T16:42:10.273Z,44.70
2017-06-10T16:44:38.565Z,45.10
2017-06-10T16:47:06.907Z,44.20
2017-06-10T16:49:35.215Z,44.60
2017-06-10T16:52:03.496Z,45.40
2017-06-10T16:54:31.792Z,45.10
2017-06-10T16:57:00.060Z,44.80
2017-06-10T16:59:28.351Z,44.60
2017-06-10T17:01:56.638Z,44.60
2017-06-10T17:04:24.932Z,43.50
2017-06-10T17:06:53.976Z,44.90
2017-06-10T17:09:22.251Z,44.30
2017-06-10T17:11:50.540Z,44.30
2017-06-10T17:14:18.816Z,43.20
2017-06-10T17:16:47.112Z,43.30
2017-06-10T17:19:15.380Z,43.80
2017-06-10T17:21:43.672Z,43.80
2017-06-10T17:24:11.939Z,44.10
2017-06-10T17:26:40.233Z,44.10
2017-06-10T17:29:09.275Z,44.30
2017-06-10T17:31:37.566Z,43.60
2017-06-10T17:34:05.840Z,44.30
2017-06-10T17:36:34.128Z,45.10
2017-06-10T17:39:02.407Z,43.80
2017-06-10T17:41:30.705Z,43.80
2017-06-10T17:43:58.996Z,44.00
2017-06-10T17:46:28.055Z,43.50
2017-06-10T17:48:56.345Z,43.50
2017-06-10T17:51:24.609Z,43.40
2017-06-10T17:53:52.901Z,43.90
2017-06-10T17:56:21.260Z,43.90
2017-06-10T17:58:49.549Z,43.80
2017-06-10T18:01:17.823Z,43.80
2017-06-10T18:03:46.115Z,43.70
2017-06-10T18:06:14.387Z,44.20
2017-06-10T18:08:42.678Z,44.50
2017-06-10T18:11:10.960Z,45.00
2017-06-10T18:13:39.263Z,44.80
2017-06-10T18:16:07.533Z,44.60
2017-06-10T18:18:35.839Z,44.90
2017-06-10T18:21:04.128Z,44.90
2017-06-10T18:23:39.699Z,44.80
2017-06-10T18:26:09.801Z,45.00
2017-06-10T18:28:38.068Z,45.70
2017-06-10T18:31:07.085Z,46.10
2017-06-10T18:33:35.364Z,46.00
2017-06-10T18:36:03.648Z,45.90
2017-06-10T18:38:31.921Z,45.70
2017-06-10T18:41:00.243Z,46.10
2017-06-10T18:43:28.525Z,46.10
2017-06-10T18:45:56.923Z,46.00
2017-06-10T18:48:25.324Z,46.10
2017-06-10T18:50:53.599Z,46.30
2017-06-10T18:53:21.901Z,46.20
2017-06-10T18:55:50.174Z,46.40
2017-06-10T18:58:19.268Z,46.50
2017-06-10T19:00:47.541Z,45.80
2017-06-10T19:03:15.849Z,46.00
2017-06-10T19:05:45.024Z,45.80
2017-06-10T19:08:13.318Z,45.80
2017-06-10T19:10:41.593Z,45.70
2017-06-10T19:13:10.648Z,46.00
2017-06-10T19:15:38.920Z,45.90
2017-06-10T19:18:07.210Z,47.10
2017-06-10T19:20:35.493Z,47.30
2017-06-10T19:23:03.806Z,47.90
2017-06-10T19:25:32.091Z,49.00
2017-06-10T19:28:00.372Z,47.20
2017-06-10T19:30:28.662Z,46.90
2017-06-10T19:32:56.950Z,46.70
2017-06-10T19:35:25.265Z,46.30
2017-06-10T19:37:53.554Z,46.60
2017-06-10T19:40:22.639Z,46.60
2017-06-10T19:42:50.916Z,46.60
2017-06-10T19:45:19.205Z,46.90
2017-06-10T19:47:48.240Z,48.10
2017-06-10T19:50:16.528Z,47.50
2017-06-10T19:52:44.812Z,47.40
2017-06-10T19:55:13.115Z,47.60
2017-06-10T19:57:41.412Z,49.50
2017-06-10T20:00:09.717Z,48.30
2017-06-10T20:02:38.005Z,47.50
2017-06-10T20:05:06.303Z,47.30
2017-06-10T20:07:34.608Z,48.20
2017-06-10T20:10:02.910Z,49.00
2017-06-10T20:12:31.202Z,48.30
2017-06-10T20:14:59.472Z,48.20
2017-06-10T20:17:27.778Z,48.80
2017-06-10T20:19:56.055Z,50.40
2017-06-10T20:22:24.373Z,51.30
2017-06-10T20:24:52.661Z,51.20
2017-06-10T20:27:20.975Z,51.00
2017-06-10T20:29:49.260Z,51.00
2017-06-10T20:32:17.559Z,51.00
2017-06-10T20:34:45.831Z,51.30
2017-06-10T20:37:14.149Z,51.60
2017-06-10T20:39:42.433Z,51.60
2017-06-10T20:42:11.501Z,52.50
2017-06-10T20:44:39.799Z,52.40
2017-06-10T20:47:08.847Z,53.20
2017-06-10T20:49:37.136Z,53.20
2017-06-10T20:52:05.413Z,53.20
2017-06-10T20:54:33.727Z,53.30
2017-06-10T20:57:02.803Z,54.00
2017-06-10T20:59:31.096Z,54.00
2017-06-10T21:02:00.144Z,54.10
2017-06-10T21:04:28.439Z,54.10
2017-06-10T21:06:56.725Z,54.30
2017-06-10T21:09:25.027Z,54.50
2017-06-10T21:11:53.317Z,54.80
2017-06-10T21:14:21.639Z,54.60
2017-06-10T21:16:49.959Z,55.10
2017-06-10T21:19:18.235Z,55.00
2017-06-10T21:21:46.534Z,53.90
2017-06-10T21:24:14.817Z,54.70
2017-06-10T21:26:43.113Z,54.70
2017-06-10T21:29:11.400Z,55.00
2017-06-10T21:31:39.692Z,54.70
2017-06-10T21:34:07.974Z,54.70
2017-06-10T21:36:36.263Z,55.10
2017-06-10T21:39:04.551Z,55.60
2017-06-10T21:41:32.844Z,55.80
2017-06-10T21:44:01.120Z,55.70
2017-06-10T21:46:30.179Z,56.10
2017-06-10T21:48:58.469Z,56.10
2017-06-10T21:51:26.780Z,56.20
2017-06-10T21:53:55.066Z,56.70
2017-06-10T21:56:23.369Z,56.70
2017-06-10T21:58:52.427Z,57.20
2017-06-10T22:01:20.708Z,57.20
2017-06-10T22:03:49.036Z,57.50
2017-06-10T22:06:17.326Z,57.50
2017-06-10T22:08:45.673Z,57.90
2017-06-10T22:11:14.728Z,58.30
2017-06-10T22:13:43.036Z,58.30
2017-06-10T22:16:12.096Z,58.10
2017-06-10T22:18:40.432Z,58.50
2017-06-10T22:21:08.712Z,58.70
2017-06-10T22:23:37.016Z,59.00
2017-06-10T22:26:05.301Z,59.10
2017-06-10T22:28:33.595Z,59.00
2017-06-10T22:31:01.872Z,59.40
2017-06-10T22:33:30.182Z,59.50
2017-06-10T22:35:59.236Z,59.50
2017-06-10T22:38:27.512Z,59.50
2017-06-10T22:40:55.812Z,59.60
2017-06-10T22:43:24.095Z,59.90
2017-06-10T22:45:52.397Z,59.90
2017-06-10T22:48:20.729Z,59.90
2017-06-10T22:50:49.019Z,60.20
2017-06-10T22:53:17.318Z,60.10
2017-06-10T22:55:45.686Z,60.40
2017-06-10T22:58:14.047Z,60.20
2017-06-10T23:00:42.357Z,60.50
2017-06-10T23:03:10.641Z,60.70
2017-06-10T23:05:39.708Z,61.10
2017-06-10T23:08:07.995Z,61.10
2017-06-10T23:10:36.292Z,61.20
2017-06-10T23:13:04.572Z,61.40
2017-06-10T23:15:33.048Z,61.10
2017-06-10T23:18:01.329Z,61.50
2017-06-10T23:20:29.604Z,61.60
2017-06-10T23:22:57.903Z,62.00
2017-06-10T23:25:26.195Z,62.30
2017-06-10T23:27:54.492Z,62.30
2017-06-10T23:30:22.772Z,62.80
2017-06-10T23:32:51.104Z,62.90
2017-06-10T23:35:19.375Z,63.20
2017-06-10T23:37:48.439Z,63.60
2017-06-10T23:40:16.716Z,63.40
2017-06-10T23:42:45.208Z,63.60
2017-06-10T23:45:14.261Z,63.90
2017-06-10T23:47:42.556Z,63.90
2017-06-10T23:50:10.840Z,64.00
2017-06-10T23:52:39.153Z,64.10
2017-06-10T23:55:07.462Z,64.20
2017-06-10T23:57:41.134Z,64.30
